Basco, Philippines
Current Conditions -  °F | °C
As of 4:30 PM on Sunday 26 Oct 2014 (Local Time) from RCKH Reporting Station
Broken Clouds Broken Clouds  
Wind Chill: 84°   Ceiling: 25000
Heat Index: 87°   Visibility: 6mi
Dew Point: 68°   Wind: 9mph
Humidity: 58%   Direction: 340°NNW
Pressure: 29.97"   Gusts: NA
Location:  20.45°N, 121.97°E
Report Text: RCKH 260830Z 34008KT 9999 FEW020 BKN250 29/20 Q1015 NOSIGRMK A2998
Loading
Personal Weather Stations






























Interactive Weather Map
Tropical Storm Tracking
New forecast layout! Learn more

10-Day Weather Forecast

Advertisements
Track Severe Weather on mobile